sensor_id;sensor_type;location;lat;lon;timestamp;P1;durP1;ratioP1;P2;durP2;ratioP2
26407;SDS011;14583;43.604;1.364;2024-03-08T00:01:06;11.02;;;2.38;;
26407;SDS011;14583;43.604;1.364;2024-03-08T00:03:32;7.30;;;1.83;;
26407;SDS011;14583;43.604;1.364;2024-03-08T00:05:58;6.43;;;1.98;;
26407;SDS011;14583;43.604;1.364;2024-03-08T00:08:24;16.80;;;2.47;;
26407;SDS011;14583;43.604;1.364;2024-03-08T00:10:50;10.88;;;2.28;;
26407;SDS011;14583;43.604;1.364;2024-03-08T00:13:15;12.80;;;2.35;;
26407;SDS011;14583;43.604;1.364;2024-03-08T00:15:41;16.70;;;2.53;;
26407;SDS011;14583;43.604;1.364;2024-03-08T00:18:07;8.88;;;2.10;;
26407;SDS011;14583;43.604;1.364;2024-03-08T00:20:32;8.07;;;1.98;;
26407;SDS011;14583;43.604;1.364;2024-03-08T00:22:58;9.20;;;2.13;;
26407;SDS011;14583;43.604;1.364;2024-03-08T00:25:24;9.88;;;2.67;;
26407;SDS011;14583;43.604;1.364;2024-03-08T00:27:50;5.38;;;1.73;;
26407;SDS011;14583;43.604;1.364;2024-03-08T00:30:16;8.18;;;2.08;;
26407;SDS011;14583;43.604;1.364;2024-03-08T00:32:42;7.57;;;2.40;;
26407;SDS011;14583;43.604;1.364;2024-03-08T00:35:07;13.65;;;2.60;;
26407;SDS011;14583;43.604;1.364;2024-03-08T00:37:33;9.75;;;2.50;;
26407;SDS011;14583;43.604;1.364;2024-03-08T00:40:02;12.63;;;2.15;;
26407;SDS011;14583;43.604;1.364;2024-03-08T00:42:28;9.07;;;2.20;;
26407;SDS011;14583;43.604;1.364;2024-03-08T00:44:54;8.30;;;2.13;;
26407;SDS011;14583;43.604;1.364;2024-03-08T00:47:19;14.90;;;2.70;;
26407;SDS011;14583;43.604;1.364;2024-03-08T00:49:45;9.95;;;2.20;;
26407;SDS011;14583;43.604;1.364;2024-03-08T00:52:11;9.30;;;2.03;;
26407;SDS011;14583;43.604;1.364;2024-03-08T00:54:37;11.27;;;2.25;;
26407;SDS011;14583;43.604;1.364;2024-03-08T00:57:05;7.88;;;2.00;;
26407;SDS011;14583;43.604;1.364;2024-03-08T00:59:31;8.73;;;1.90;;
26407;SDS011;14583;43.604;1.364;2024-03-08T01:02:00;6.35;;;2.22;;
26407;SDS011;14583;43.604;1.364;2024-03-08T01:04:27;11.38;;;2.15;;
26407;SDS011;14583;43.604;1.364;2024-03-08T01:06:55;6.40;;;2.10;;
26407;SDS011;14583;43.604;1.364;2024-03-08T01:09:22;11.93;;;2.10;;
26407;SDS011;14583;43.604;1.364;2024-03-08T01:11:48;4.97;;;1.85;;
26407;SDS011;14583;43.604;1.364;2024-03-08T01:14:15;11.80;;;2.40;;
26407;SDS011;14583;43.604;1.364;2024-03-08T01:16:41;8.35;;;1.83;;
26407;SDS011;14583;43.604;1.364;2024-03-08T01:19:07;6.95;;;2.05;;
26407;SDS011;14583;43.604;1.364;2024-03-08T01:21:32;7.03;;;1.98;;
26407;SDS011;14583;43.604;1.364;2024-03-08T01:23:58;12.75;;;2.35;;
26407;SDS011;14583;43.604;1.364;2024-03-08T01:26:24;6.10;;;1.92;;
26407;SDS011;14583;43.604;1.364;2024-03-08T01:28:49;11.75;;;2.85;;
26407;SDS011;14583;43.604;1.364;2024-03-08T01:31:15;12.32;;;2.30;;
26407;SDS011;14583;43.604;1.364;2024-03-08T01:33:41;15.63;;;2.42;;
26407;SDS011;14583;43.604;1.364;2024-03-08T01:36:06;10.20;;;1.80;;
26407;SDS011;14583;43.604;1.364;2024-03-08T01:38:32;9.07;;;2.03;;
26407;SDS011;14583;43.604;1.364;2024-03-08T01:40:58;12.40;;;2.20;;
26407;SDS011;14583;43.604;1.364;2024-03-08T01:43:28;10.52;;;2.72;;
26407;SDS011;14583;43.604;1.364;2024-03-08T01:45:55;8.48;;;2.10;;
26407;SDS011;14583;43.604;1.364;2024-03-08T01:48:24;11.80;;;2.40;;
26407;SDS011;14583;43.604;1.364;2024-03-08T01:50:51;10.85;;;2.53;;
26407;SDS011;14583;43.604;1.364;2024-03-08T01:53:19;10.32;;;2.10;;
26407;SDS011;14583;43.604;1.364;2024-03-08T01:55:46;7.18;;;2.17;;
26407;SDS011;14583;43.604;1.364;2024-03-08T01:58:13;5.65;;;1.90;;
26407;SDS011;14583;43.604;1.364;2024-03-08T02:00:46;7.00;;;2.00;;
26407;SDS011;14583;43.604;1.364;2024-03-08T02:03:16;10.63;;;1.95;;
26407;SDS011;14583;43.604;1.364;2024-03-08T02:05:42;12.02;;;1.80;;
26407;SDS011;14583;43.604;1.364;2024-03-08T02:08:10;7.63;;;1.80;;
26407;SDS011;14583;43.604;1.364;2024-03-08T02:10:43;15.82;;;2.30;;
26407;SDS011;14583;43.604;1.364;2024-03-08T02:13:10;9.75;;;2.03;;
26407;SDS011;14583;43.604;1.364;2024-03-08T02:18:28;7.80;;;2.15;;
26407;SDS011;14583;43.604;1.364;2024-03-08T02:20:57;9.75;;;1.92;;
26407;SDS011;14583;43.604;1.364;2024-03-08T02:23:24;7.97;;;2.00;;
26407;SDS011;14583;43.604;1.364;2024-03-08T02:25:51;9.45;;;1.70;;
26407;SDS011;14583;43.604;1.364;2024-03-08T02:28:18;7.15;;;2.00;;
26407;SDS011;14583;43.604;1.364;2024-03-08T02:30:47;11.32;;;2.33;;
26407;SDS011;14583;43.604;1.364;2024-03-08T02:33:14;14.25;;;2.45;;
26407;SDS011;14583;43.604;1.364;2024-03-08T02:35:44;11.02;;;2.05;;
26407;SDS011;14583;43.604;1.364;2024-03-08T02:38:13;6.32;;;2.10;;
26407;SDS011;14583;43.604;1.364;2024-03-08T02:40:43;9.55;;;2.00;;
26407;SDS011;14583;43.604;1.364;2024-03-08T02:43:10;6.57;;;1.90;;
26407;SDS011;14583;43.604;1.364;2024-03-08T02:45:37;9.70;;;1.88;;
26407;SDS011;14583;43.604;1.364;2024-03-08T02:48:03;6.25;;;2.10;;
26407;SDS011;14583;43.604;1.364;2024-03-08T02:50:31;9.02;;;1.70;;
26407;SDS011;14583;43.604;1.364;2024-03-08T02:52:57;15.98;;;2.10;;
26407;SDS011;14583;43.604;1.364;2024-03-08T02:55:23;7.85;;;1.60;;
26407;SDS011;14583;43.604;1.364;2024-03-08T02:57:51;8.55;;;1.63;;
26407;SDS011;14583;43.604;1.364;2024-03-08T03:00:17;9.70;;;2.08;;
26407;SDS011;14583;43.604;1.364;2024-03-08T03:02:44;7.70;;;1.80;;
26407;SDS011;14583;43.604;1.364;2024-03-08T03:05:11;9.98;;;1.80;;
26407;SDS011;14583;43.604;1.364;2024-03-08T03:07:37;7.53;;;1.88;;
26407;SDS011;14583;43.604;1.364;2024-03-08T03:10:03;6.97;;;1.77;;
26407;SDS011;14583;43.604;1.364;2024-03-08T03:12:30;7.47;;;1.70;;
26407;SDS011;14583;43.604;1.364;2024-03-08T03:14:56;8.07;;;1.75;;
26407;SDS011;14583;43.604;1.364;2024-03-08T03:17:26;12.05;;;2.38;;
26407;SDS011;14583;43.604;1.364;2024-03-08T03:19:52;9.35;;;2.08;;
26407;SDS011;14583;43.604;1.364;2024-03-08T03:22:18;10.27;;;2.13;;
26407;SDS011;14583;43.604;1.364;2024-03-08T03:24:45;7.47;;;1.70;;
26407;SDS011;14583;43.604;1.364;2024-03-08T03:27:16;7.70;;;1.70;;
26407;SDS011;14583;43.604;1.364;2024-03-08T03:29:43;14.23;;;2.38;;
26407;SDS011;14583;43.604;1.364;2024-03-08T03:32:12;10.25;;;1.92;;
26407;SDS011;14583;43.604;1.364;2024-03-08T03:34:38;13.05;;;2.03;;
26407;SDS011;14583;43.604;1.364;2024-03-08T03:37:05;10.10;;;1.95;;
26407;SDS011;14583;43.604;1.364;2024-03-08T03:39:37;7.43;;;1.93;;
26407;SDS011;14583;43.604;1.364;2024-03-08T03:42:18;9.52;;;1.90;;
26407;SDS011;14583;43.604;1.364;2024-03-08T03:44:45;8.23;;;1.80;;
26407;SDS011;14583;43.604;1.364;2024-03-08T03:47:12;11.40;;;1.90;;
26407;SDS011;14583;43.604;1.364;2024-03-08T03:49:39;10.07;;;2.00;;
26407;SDS011;14583;43.604;1.364;2024-03-08T03:52:05;8.07;;;1.73;;
26407;SDS011;14583;43.604;1.364;2024-03-08T03:54:31;10.40;;;2.17;;
26407;SDS011;14583;43.604;1.364;2024-03-08T03:56:58;10.55;;;1.90;;
26407;SDS011;14583;43.604;1.364;2024-03-08T03:59:23;8.80;;;2.38;;
26407;SDS011;14583;43.604;1.364;2024-03-08T04:01:49;8.35;;;1.73;;
26407;SDS011;14583;43.604;1.364;2024-03-08T04:04:15;7.97;;;1.40;;
26407;SDS011;14583;43.604;1.364;2024-03-08T04:06:41;10.77;;;2.15;;
26407;SDS011;14583;43.604;1.364;2024-03-08T04:09:07;10.75;;;2.33;;
26407;SDS011;14583;43.604;1.364;2024-03-08T04:11:33;8.13;;;1.80;;
26407;SDS011;14583;43.604;1.364;2024-03-08T04:13:59;9.52;;;1.70;;
26407;SDS011;14583;43.604;1.364;2024-03-08T04:16:24;12.63;;;1.80;;
26407;SDS011;14583;43.604;1.364;2024-03-08T04:18:51;6.45;;;1.40;;
26407;SDS011;14583;43.604;1.364;2024-03-08T04:21:17;12.07;;;1.83;;
26407;SDS011;14583;43.604;1.364;2024-03-08T04:23:44;7.38;;;1.73;;
26407;SDS011;14583;43.604;1.364;2024-03-08T04:26:10;7.35;;;2.10;;
26407;SDS011;14583;43.604;1.364;2024-03-08T04:28:36;12.48;;;1.75;;
26407;SDS011;14583;43.604;1.364;2024-03-08T04:31:02;7.68;;;1.58;;
26407;SDS011;14583;43.604;1.364;2024-03-08T04:33:29;8.45;;;2.20;;
26407;SDS011;14583;43.604;1.364;2024-03-08T04:35:54;8.80;;;1.80;;
26407;SDS011;14583;43.604;1.364;2024-03-08T04:38:20;9.20;;;1.90;;
26407;SDS011;14583;43.604;1.364;2024-03-08T04:40:46;11.85;;;1.60;;
26407;SDS011;14583;43.604;1.364;2024-03-08T04:43:12;10.27;;;2.00;;
26407;SDS011;14583;43.604;1.364;2024-03-08T04:45:39;8.50;;;1.90;;
26407;SDS011;14583;43.604;1.364;2024-03-08T04:48:07;7.75;;;1.80;;
26407;SDS011;14583;43.604;1.364;2024-03-08T04:50:33;9.00;;;2.00;;
26407;SDS011;14583;43.604;1.364;2024-03-08T04:52:59;10.80;;;1.83;;
26407;SDS011;14583;43.604;1.364;2024-03-08T04:55:24;11.75;;;1.75;;
26407;SDS011;14583;43.604;1.364;2024-03-08T04:57:50;11.98;;;2.10;;
26407;SDS011;14583;43.604;1.364;2024-03-08T05:00:16;8.75;;;2.00;;
26407;SDS011;14583;43.604;1.364;2024-03-08T05:02:42;12.80;;;2.03;;
26407;SDS011;14583;43.604;1.364;2024-03-08T05:05:08;5.82;;;1.55;;
26407;SDS011;14583;43.604;1.364;2024-03-08T05:07:37;7.97;;;2.15;;
26407;SDS011;14583;43.604;1.364;2024-03-08T05:10:06;8.60;;;1.75;;
26407;SDS011;14583;43.604;1.364;2024-03-08T05:12:33;12.20;;;2.25;;
26407;SDS011;14583;43.604;1.364;2024-03-08T05:14:58;8.77;;;1.88;;
26407;SDS011;14583;43.604;1.364;2024-03-08T05:17:25;5.63;;;2.05;;
26407;SDS011;14583;43.604;1.364;2024-03-08T05:19:51;9.80;;;2.47;;
26407;SDS011;14583;43.604;1.364;2024-03-08T05:22:16;10.82;;;1.90;;
26407;SDS011;14583;43.604;1.364;2024-03-08T05:24:43;10.60;;;2.10;;
26407;SDS011;14583;43.604;1.364;2024-03-08T05:27:09;6.97;;;2.42;;
26407;SDS011;14583;43.604;1.364;2024-03-08T05:29:35;12.43;;;2.00;;
26407;SDS011;14583;43.604;1.364;2024-03-08T05:32:02;12.88;;;2.47;;
26407;SDS011;14583;43.604;1.364;2024-03-08T05:34:29;14.27;;;3.35;;
26407;SDS011;14583;43.604;1.364;2024-03-08T05:36:54;11.75;;;1.92;;
26407;SDS011;14583;43.604;1.364;2024-03-08T05:39:20;14.90;;;2.42;;
26407;SDS011;14583;43.604;1.364;2024-03-08T05:41:46;11.55;;;1.80;;
26407;SDS011;14583;43.604;1.364;2024-03-08T05:44:12;5.95;;;2.00;;
26407;SDS011;14583;43.604;1.364;2024-03-08T05:46:38;11.30;;;1.90;;
26407;SDS011;14583;43.604;1.364;2024-03-08T05:49:04;11.95;;;2.10;;
26407;SDS011;14583;43.604;1.364;2024-03-08T05:51:31;10.73;;;2.10;;
26407;SDS011;14583;43.604;1.364;2024-03-08T05:54:04;12.48;;;2.20;;
26407;SDS011;14583;43.604;1.364;2024-03-08T05:56:38;10.23;;;2.33;;
26407;SDS011;14583;43.604;1.364;2024-03-08T05:59:08;8.55;;;1.65;;
26407;SDS011;14583;43.604;1.364;2024-03-08T06:01:34;14.05;;;2.20;;
26407;SDS011;14583;43.604;1.364;2024-03-08T06:04:01;8.02;;;1.88;;
26407;SDS011;14583;43.604;1.364;2024-03-08T06:06:28;9.23;;;2.10;;
26407;SDS011;14583;43.604;1.364;2024-03-08T06:08:54;13.32;;;2.53;;
26407;SDS011;14583;43.604;1.364;2024-03-08T06:11:23;15.13;;;2.63;;
26407;SDS011;14583;43.604;1.364;2024-03-08T06:13:51;13.48;;;2.88;;
26407;SDS011;14583;43.604;1.364;2024-03-08T06:16:24;8.57;;;2.25;;
26407;SDS011;14583;43.604;1.364;2024-03-08T06:18:54;15.40;;;2.63;;
26407;SDS011;14583;43.604;1.364;2024-03-08T06:21:20;10.88;;;2.30;;
26407;SDS011;14583;43.604;1.364;2024-03-08T06:23:47;13.02;;;2.47;;
26407;SDS011;14583;43.604;1.364;2024-03-08T06:26:13;14.27;;;2.53;;
26407;SDS011;14583;43.604;1.364;2024-03-08T06:28:39;14.48;;;2.58;;
26407;SDS011;14583;43.604;1.364;2024-03-08T06:31:04;15.30;;;2.80;;
26407;SDS011;14583;43.604;1.364;2024-03-08T06:33:31;15.07;;;2.72;;
26407;SDS011;14583;43.604;1.364;2024-03-08T06:35:57;13.52;;;2.75;;
26407;SDS011;14583;43.604;1.364;2024-03-08T06:38:26;9.48;;;2.53;;
26407;SDS011;14583;43.604;1.364;2024-03-08T06:40:52;10.88;;;2.20;;
26407;SDS011;14583;43.604;1.364;2024-03-08T06:43:19;14.15;;;2.30;;
26407;SDS011;14583;43.604;1.364;2024-03-08T06:45:45;8.70;;;2.30;;
26407;SDS011;14583;43.604;1.364;2024-03-08T06:48:16;14.60;;;2.90;;
26407;SDS011;14583;43.604;1.364;2024-03-08T06:50:43;12.48;;;2.28;;
26407;SDS011;14583;43.604;1.364;2024-03-08T06:53:10;12.10;;;2.05;;
26407;SDS011;14583;43.604;1.364;2024-03-08T06:55:36;10.40;;;2.33;;
26407;SDS011;14583;43.604;1.364;2024-03-08T06:58:02;9.75;;;1.75;;
26407;SDS011;14583;43.604;1.364;2024-03-08T07:00:28;6.85;;;1.60;;
26407;SDS011;14583;43.604;1.364;2024-03-08T07:02:55;7.05;;;1.77;;
26407;SDS011;14583;43.604;1.364;2024-03-08T07:05:26;15.30;;;2.45;;
26407;SDS011;14583;43.604;1.364;2024-03-08T07:07:52;7.55;;;1.80;;
26407;SDS011;14583;43.604;1.364;2024-03-08T07:10:19;14.40;;;2.17;;
26407;SDS011;14583;43.604;1.364;2024-03-08T07:12:51;9.90;;;2.05;;
26407;SDS011;14583;43.604;1.364;2024-03-08T07:15:18;11.82;;;2.15;;
26407;SDS011;14583;43.604;1.364;2024-03-08T07:17:48;12.80;;;2.00;;
26407;SDS011;14583;43.604;1.364;2024-03-08T07:20:14;14.63;;;1.88;;
26407;SDS011;14583;43.604;1.364;2024-03-08T07:22:44;9.02;;;1.58;;
26407;SDS011;14583;43.604;1.364;2024-03-08T07:25:13;9.88;;;1.73;;
26407;SDS011;14583;43.604;1.364;2024-03-08T07:30:15;11.50;;;1.70;;
26407;SDS011;14583;43.604;1.364;2024-03-08T07:32:59;9.25;;;1.63;;
26407;SDS011;14583;43.604;1.364;2024-03-08T07:35:24;10.65;;;1.35;;
26407;SDS011;14583;43.604;1.364;2024-03-08T07:37:51;6.80;;;1.60;;
26407;SDS011;14583;43.604;1.364;2024-03-08T07:40:19;11.00;;;2.13;;
26407;SDS011;14583;43.604;1.364;2024-03-08T07:42:44;8.48;;;1.58;;
26407;SDS011;14583;43.604;1.364;2024-03-08T07:45:10;6.40;;;1.67;;
26407;SDS011;14583;43.604;1.364;2024-03-08T07:47:37;7.15;;;1.45;;
26407;SDS011;14583;43.604;1.364;2024-03-08T07:50:03;8.57;;;1.73;;
26407;SDS011;14583;43.604;1.364;2024-03-08T07:52:29;8.95;;;2.05;;
26407;SDS011;14583;43.604;1.364;2024-03-08T07:54:55;5.75;;;1.67;;
26407;SDS011;14583;43.604;1.364;2024-03-08T07:57:21;6.15;;;1.58;;
26407;SDS011;14583;43.604;1.364;2024-03-08T07:59:51;8.30;;;1.77;;
26407;SDS011;14583;43.604;1.364;2024-03-08T08:02:17;8.88;;;2.00;;
26407;SDS011;14583;43.604;1.364;2024-03-08T08:04:43;6.68;;;1.75;;
26407;SDS011;14583;43.604;1.364;2024-03-08T08:07:10;9.38;;;2.15;;
26407;SDS011;14583;43.604;1.364;2024-03-08T08:09:36;8.15;;;2.05;;
26407;SDS011;14583;43.604;1.364;2024-03-08T08:12:02;8.80;;;2.42;;
26407;SDS011;14583;43.604;1.364;2024-03-08T08:14:29;9.82;;;2.03;;
26407;SDS011;14583;43.604;1.364;2024-03-08T08:16:56;7.80;;;1.95;;
26407;SDS011;14583;43.604;1.364;2024-03-08T08:19:22;9.82;;;2.50;;
26407;SDS011;14583;43.604;1.364;2024-03-08T08:21:48;6.50;;;1.65;;
26407;SDS011;14583;43.604;1.364;2024-03-08T08:24:14;8.20;;;2.40;;
26407;SDS011;14583;43.604;1.364;2024-03-08T08:26:40;9.38;;;2.05;;
26407;SDS011;14583;43.604;1.364;2024-03-08T08:29:06;10.85;;;2.38;;
26407;SDS011;14583;43.604;1.364;2024-03-08T08:31:32;6.22;;;1.90;;
26407;SDS011;14583;43.604;1.364;2024-03-08T08:34:01;15.65;;;2.55;;
26407;SDS011;14583;43.604;1.364;2024-03-08T08:36:28;10.55;;;2.30;;
26407;SDS011;14583;43.604;1.364;2024-03-08T08:38:55;10.00;;;2.55;;
26407;SDS011;14583;43.604;1.364;2024-03-08T08:41:22;9.48;;;2.55;;
26407;SDS011;14583;43.604;1.364;2024-03-08T08:43:48;9.50;;;2.38;;
26407;SDS011;14583;43.604;1.364;2024-03-08T08:46:17;7.10;;;2.30;;
26407;SDS011;14583;43.604;1.364;2024-03-08T08:48:43;13.30;;;2.65;;
26407;SDS011;14583;43.604;1.364;2024-03-08T08:51:10;10.43;;;2.50;;
26407;SDS011;14583;43.604;1.364;2024-03-08T08:53:42;9.10;;;2.75;;
26407;SDS011;14583;43.604;1.364;2024-03-08T08:56:11;8.45;;;2.75;;
26407;SDS011;14583;43.604;1.364;2024-03-08T08:58:41;10.55;;;2.60;;
26407;SDS011;14583;43.604;1.364;2024-03-08T09:01:10;9.73;;;2.70;;
26407;SDS011;14583;43.604;1.364;2024-03-08T09:03:37;9.43;;;2.97;;
26407;SDS011;14583;43.604;1.364;2024-03-08T09:06:06;8.38;;;2.35;;
26407;SDS011;14583;43.604;1.364;2024-03-08T09:08:35;10.25;;;2.92;;
26407;SDS011;14583;43.604;1.364;2024-03-08T09:11:01;10.05;;;3.22;;
26407;SDS011;14583;43.604;1.364;2024-03-08T09:13:27;7.82;;;2.75;;
26407;SDS011;14583;43.604;1.364;2024-03-08T09:15:52;9.93;;;3.00;;
26407;SDS011;14583;43.604;1.364;2024-03-08T09:18:18;6.72;;;2.35;;
26407;SDS011;14583;43.604;1.364;2024-03-08T09:20:44;5.50;;;2.60;;
26407;SDS011;14583;43.604;1.364;2024-03-08T09:23:10;9.05;;;2.53;;
26407;SDS011;14583;43.604;1.364;2024-03-08T09:25:36;7.55;;;2.55;;
26407;SDS011;14583;43.604;1.364;2024-03-08T09:28:02;7.80;;;2.42;;
26407;SDS011;14583;43.604;1.364;2024-03-08T09:30:28;6.65;;;2.90;;
26407;SDS011;14583;43.604;1.364;2024-03-08T09:32:54;7.15;;;2.78;;
26407;SDS011;14583;43.604;1.364;2024-03-08T09:35:20;9.02;;;2.50;;
26407;SDS011;14583;43.604;1.364;2024-03-08T09:37:45;11.65;;;4.25;;
26407;SDS011;14583;43.604;1.364;2024-03-08T09:40:16;10.38;;;3.60;;
26407;SDS011;14583;43.604;1.364;2024-03-08T09:42:45;8.20;;;2.38;;
26407;SDS011;14583;43.604;1.364;2024-03-08T09:45:12;7.50;;;2.72;;
26407;SDS011;14583;43.604;1.364;2024-03-08T09:47:40;5.70;;;3.00;;
26407;SDS011;14583;43.604;1.364;2024-03-08T09:50:07;11.30;;;2.88;;
26407;SDS011;14583;43.604;1.364;2024-03-08T09:52:37;11.60;;;3.08;;
26407;SDS011;14583;43.604;1.364;2024-03-08T09:55:09;5.60;;;2.30;;
26407;SDS011;14583;43.604;1.364;2024-03-08T09:57:36;8.30;;;2.55;;
26407;SDS011;14583;43.604;1.364;2024-03-08T10:00:03;5.63;;;2.35;;
26407;SDS011;14583;43.604;1.364;2024-03-08T10:02:46;6.60;;;2.13;;
26407;SDS011;14583;43.604;1.364;2024-03-08T10:05:13;5.30;;;2.35;;
26407;SDS011;14583;43.604;1.364;2024-03-08T10:07:39;5.20;;;2.40;;
26407;SDS011;14583;43.604;1.364;2024-03-08T10:10:05;4.90;;;2.13;;
26407;SDS011;14583;43.604;1.364;2024-03-08T10:12:33;4.93;;;2.10;;
26407;SDS011;14583;43.604;1.364;2024-03-08T10:15:02;6.38;;;2.83;;
26407;SDS011;14583;43.604;1.364;2024-03-08T10:17:28;3.40;;;1.85;;
26407;SDS011;14583;43.604;1.364;2024-03-08T10:19:57;7.30;;;1.90;;
26407;SDS011;14583;43.604;1.364;2024-03-08T10:22:25;4.53;;;2.13;;
26407;SDS011;14583;43.604;1.364;2024-03-08T10:24:50;7.35;;;1.92;;
26407;SDS011;14583;43.604;1.364;2024-03-08T10:27:17;3.33;;;1.60;;
26407;SDS011;14583;43.604;1.364;2024-03-08T10:29:46;4.57;;;1.58;;
26407;SDS011;14583;43.604;1.364;2024-03-08T10:32:16;4.05;;;1.90;;
26407;SDS011;14583;43.604;1.364;2024-03-08T10:34:42;6.45;;;1.80;;
26407;SDS011;14583;43.604;1.364;2024-03-08T10:37:11;5.78;;;1.63;;
26407;SDS011;14583;43.604;1.364;2024-03-08T10:39:42;3.80;;;1.73;;
26407;SDS011;14583;43.604;1.364;2024-03-08T10:42:14;7.00;;;1.92;;
26407;SDS011;14583;43.604;1.364;2024-03-08T10:45:05;5.03;;;1.65;;
26407;SDS011;14583;43.604;1.364;2024-03-08T10:47:38;7.63;;;2.03;;
26407;SDS011;14583;43.604;1.364;2024-03-08T10:52:35;6.22;;;2.25;;
26407;SDS011;14583;43.604;1.364;2024-03-08T10:55:02;3.58;;;1.88;;
26407;SDS011;14583;43.604;1.364;2024-03-08T10:57:28;6.40;;;1.92;;
26407;SDS011;14583;43.604;1.364;2024-03-08T10:59:54;4.03;;;1.85;;
26407;SDS011;14583;43.604;1.364;2024-03-08T11:02:20;3.90;;;1.85;;
26407;SDS011;14583;43.604;1.364;2024-03-08T11:04:46;11.15;;;3.03;;
26407;SDS011;14583;43.604;1.364;2024-03-08T11:07:15;11.50;;;4.65;;
26407;SDS011;14583;43.604;1.364;2024-03-08T11:09:43;6.63;;;3.17;;
26407;SDS011;14583;43.604;1.364;2024-03-08T11:12:22;5.72;;;2.38;;
26407;SDS011;14583;43.604;1.364;2024-03-08T11:15:00;7.22;;;3.30;;
26407;SDS011;14583;43.604;1.364;2024-03-08T11:19:57;5.63;;;2.20;;
26407;SDS011;14583;43.604;1.364;2024-03-08T11:22:32;4.80;;;2.08;;
26407;SDS011;14583;43.604;1.364;2024-03-08T11:25:02;3.55;;;2.03;;
26407;SDS011;14583;43.604;1.364;2024-03-08T11:27:31;4.75;;;1.83;;
26407;SDS011;14583;43.604;1.364;2024-03-08T11:30:07;4.22;;;1.73;;
26407;SDS011;14583;43.604;1.364;2024-03-08T11:32:36;3.15;;;1.77;;
26407;SDS011;14583;43.604;1.364;2024-03-08T11:35:06;5.55;;;2.90;;
26407;SDS011;14583;43.604;1.364;2024-03-08T11:37:34;6.50;;;2.13;;
26407;SDS011;14583;43.604;1.364;2024-03-08T11:40:01;3.72;;;1.50;;
26407;SDS011;14583;43.604;1.364;2024-03-08T11:42:29;2.75;;;1.75;;
26407;SDS011;14583;43.604;1.364;2024-03-08T11:44:55;5.22;;;2.03;;
26407;SDS011;14583;43.604;1.364;2024-03-08T11:47:21;3.08;;;1.60;;
26407;SDS011;14583;43.604;1.364;2024-03-08T11:49:47;4.75;;;1.75;;
26407;SDS011;14583;43.604;1.364;2024-03-08T11:52:14;4.60;;;1.70;;
26407;SDS011;14583;43.604;1.364;2024-03-08T11:54:41;3.30;;;1.80;;
26407;SDS011;14583;43.604;1.364;2024-03-08T11:57:12;2.75;;;1.45;;
26407;SDS011;14583;43.604;1.364;2024-03-08T11:59:38;2.60;;;1.20;;
26407;SDS011;14583;43.604;1.364;2024-03-08T12:02:04;3.28;;;1.23;;
26407;SDS011;14583;43.604;1.364;2024-03-08T12:04:31;5.32;;;1.40;;
26407;SDS011;14583;43.604;1.364;2024-03-08T12:07:00;3.20;;;1.80;;
26407;SDS011;14583;43.604;1.364;2024-03-08T12:09:34;2.35;;;1.40;;
26407;SDS011;14583;43.604;1.364;2024-03-08T12:12:01;4.25;;;1.90;;
26407;SDS011;14583;43.604;1.364;2024-03-08T12:14:29;3.50;;;1.40;;
26407;SDS011;14583;43.604;1.364;2024-03-08T12:16:56;3.55;;;1.80;;
26407;SDS011;14583;43.604;1.364;2024-03-08T12:19:22;3.75;;;1.60;;
26407;SDS011;14583;43.604;1.364;2024-03-08T12:21:48;2.83;;;1.10;;
26407;SDS011;14583;43.604;1.364;2024-03-08T12:24:15;4.68;;;1.50;;
26407;SDS011;14583;43.604;1.364;2024-03-08T12:26:44;5.30;;;1.75;;
26407;SDS011;14583;43.604;1.364;2024-03-08T12:31:51;2.72;;;1.40;;
26407;SDS011;14583;43.604;1.364;2024-03-08T12:34:18;2.75;;;1.40;;
26407;SDS011;14583;43.604;1.364;2024-03-08T12:36:48;2.95;;;1.40;;
26407;SDS011;14583;43.604;1.364;2024-03-08T12:39:17;2.60;;;1.58;;
26407;SDS011;14583;43.604;1.364;2024-03-08T12:41:55;6.75;;;2.20;;
26407;SDS011;14583;43.604;1.364;2024-03-08T12:44:27;3.28;;;1.40;;
26407;SDS011;14583;43.604;1.364;2024-03-08T12:46:53;3.10;;;1.55;;
26407;SDS011;14583;43.604;1.364;2024-03-08T12:49:20;3.15;;;1.80;;
26407;SDS011;14583;43.604;1.364;2024-03-08T12:51:48;3.17;;;1.77;;
26407;SDS011;14583;43.604;1.364;2024-03-08T12:54:14;4.15;;;1.60;;
26407;SDS011;14583;43.604;1.364;2024-03-08T12:56:40;2.10;;;1.50;;
26407;SDS011;14583;43.604;1.364;2024-03-08T12:59:07;2.53;;;1.30;;
26407;SDS011;14583;43.604;1.364;2024-03-08T13:01:33;3.38;;;1.55;;
26407;SDS011;14583;43.604;1.364;2024-03-08T13:04:02;4.03;;;1.52;;
26407;SDS011;14583;43.604;1.364;2024-03-08T13:06:29;2.75;;;1.40;;
26407;SDS011;14583;43.604;1.364;2024-03-08T13:08:56;3.47;;;1.77;;
26407;SDS011;14583;43.604;1.364;2024-03-08T13:11:23;5.72;;;1.63;;
26407;SDS011;14583;43.604;1.364;2024-03-08T13:13:50;4.78;;;2.20;;
26407;SDS011;14583;43.604;1.364;2024-03-08T13:16:16;2.97;;;1.70;;
26407;SDS011;14583;43.604;1.364;2024-03-08T13:18:44;4.80;;;1.80;;
26407;SDS011;14583;43.604;1.364;2024-03-08T13:21:13;7.68;;;1.25;;
26407;SDS011;14583;43.604;1.364;2024-03-08T13:23:40;2.95;;;1.40;;
26407;SDS011;14583;43.604;1.364;2024-03-08T13:26:10;3.83;;;1.23;;
26407;SDS011;14583;43.604;1.364;2024-03-08T13:28:43;3.90;;;1.45;;
26407;SDS011;14583;43.604;1.364;2024-03-08T13:31:10;2.50;;;1.25;;
26407;SDS011;14583;43.604;1.364;2024-03-08T13:33:36;1.65;;;1.05;;
26407;SDS011;14583;43.604;1.364;2024-03-08T13:36:04;1.85;;;1.00;;
26407;SDS011;14583;43.604;1.364;2024-03-08T13:38:32;4.18;;;1.30;;
26407;SDS011;14583;43.604;1.364;2024-03-08T13:41:01;1.85;;;1.30;;
26407;SDS011;14583;43.604;1.364;2024-03-08T13:43:27;2.10;;;1.02;;
26407;SDS011;14583;43.604;1.364;2024-03-08T13:45:53;3.55;;;1.15;;
26407;SDS011;14583;43.604;1.364;2024-03-08T13:48:20;2.08;;;0.90;;
26407;SDS011;14583;43.604;1.364;2024-03-08T13:50:47;2.90;;;1.00;;
26407;SDS011;14583;43.604;1.364;2024-03-08T13:53:14;1.67;;;1.00;;
26407;SDS011;14583;43.604;1.364;2024-03-08T13:55:40;3.47;;;1.20;;
26407;SDS011;14583;43.604;1.364;2024-03-08T13:58:06;2.13;;;1.00;;
26407;SDS011;14583;43.604;1.364;2024-03-08T14:00:34;2.55;;;1.13;;
26407;SDS011;14583;43.604;1.364;2024-03-08T14:03:01;2.03;;;0.90;;
26407;SDS011;14583;43.604;1.364;2024-03-08T14:05:40;0.88;;;0.77;;
26407;SDS011;14583;43.604;1.364;2024-03-08T14:08:07;1.73;;;0.80;;
26407;SDS011;14583;43.604;1.364;2024-03-08T14:10:37;2.88;;;1.02;;
26407;SDS011;14583;43.604;1.364;2024-03-08T14:13:03;1.95;;;1.30;;
26407;SDS011;14583;43.604;1.364;2024-03-08T14:15:33;3.63;;;0.98;;
26407;SDS011;14583;43.604;1.364;2024-03-08T14:18:00;2.35;;;0.95;;
26407;SDS011;14583;43.604;1.364;2024-03-08T14:20:26;3.03;;;1.00;;
26407;SDS011;14583;43.604;1.364;2024-03-08T14:22:55;1.35;;;0.93;;
26407;SDS011;14583;43.604;1.364;2024-03-08T14:25:21;2.65;;;1.13;;
26407;SDS011;14583;43.604;1.364;2024-03-08T14:27:49;1.45;;;0.90;;
26407;SDS011;14583;43.604;1.364;2024-03-08T14:30:27;2.50;;;1.05;;
26407;SDS011;14583;43.604;1.364;2024-03-08T14:33:06;3.63;;;1.15;;
26407;SDS011;14583;43.604;1.364;2024-03-08T14:35:37;2.65;;;1.08;;
26407;SDS011;14583;43.604;1.364;2024-03-08T14:38:06;0.88;;;0.80;;
26407;SDS011;14583;43.604;1.364;2024-03-08T14:40:35;2.15;;;1.15;;
26407;SDS011;14583;43.604;1.364;2024-03-08T14:43:02;4.78;;;0.90;;
26407;SDS011;14583;43.604;1.364;2024-03-08T14:45:29;1.70;;;1.02;;
26407;SDS011;14583;43.604;1.364;2024-03-08T14:47:55;2.03;;;1.08;;
26407;SDS011;14583;43.604;1.364;2024-03-08T14:50:24;2.00;;;0.90;;
26407;SDS011;14583;43.604;1.364;2024-03-08T14:52:50;2.63;;;0.82;;
26407;SDS011;14583;43.604;1.364;2024-03-08T14:55:20;3.05;;;1.00;;
26407;SDS011;14583;43.604;1.364;2024-03-08T14:57:50;2.97;;;1.23;;